sensor_id;sensor_type;location;lat;lon;timestamp;P1;durP1;ratioP1;P2;durP2;ratioP2
69989;SDS011;57331;52.054;5.294;2022-12-07T00:01:06;20.47;;;6.73;;
69989;SDS011;57331;52.054;5.294;2022-12-07T00:03:34;13.60;;;5.35;;
69989;SDS011;57331;52.054;5.294;2022-12-07T00:06:03;14.27;;;6.57;;
69989;SDS011;57331;52.054;5.294;2022-12-07T00:08:31;13.32;;;6.68;;
69989;SDS011;57331;52.054;5.294;2022-12-07T00:11:02;10.20;;;4.82;;
69989;SDS011;57331;52.054;5.294;2022-12-07T00:13:34;13.67;;;5.20;;
69989;SDS011;57331;52.054;5.294;2022-12-07T00:16:12;16.98;;;5.75;;
69989;SDS011;57331;52.054;5.294;2022-12-07T00:18:44;14.25;;;4.15;;
69989;SDS011;57331;52.054;5.294;2022-12-07T00:23:43;21.98;;;8.35;;
69989;SDS011;57331;52.054;5.294;2022-12-07T00:26:15;13.33;;;5.90;;
69989;SDS011;57331;52.054;5.294;2022-12-07T00:28:45;18.23;;;6.30;;
69989;SDS011;57331;52.054;5.294;2022-12-07T00:31:13;23.13;;;8.98;;
69989;SDS011;57331;52.054;5.294;2022-12-07T00:33:41;18.05;;;6.30;;
69989;SDS011;57331;52.054;5.294;2022-12-07T00:36:09;17.98;;;6.00;;
69989;SDS011;57331;52.054;5.294;2022-12-07T00:38:38;14.77;;;5.33;;
69989;SDS011;57331;52.054;5.294;2022-12-07T00:41:27;15.82;;;6.22;;
69989;SDS011;57331;52.054;5.294;2022-12-07T00:43:53;16.48;;;6.32;;
69989;SDS011;57331;52.054;5.294;2022-12-07T00:46:21;12.18;;;6.05;;
69989;SDS011;57331;52.054;5.294;2022-12-07T00:48:49;15.57;;;5.40;;
69989;SDS011;57331;52.054;5.294;2022-12-07T00:51:18;13.60;;;6.03;;
69989;SDS011;57331;52.054;5.294;2022-12-07T00:53:46;13.20;;;5.55;;
69989;SDS011;57331;52.054;5.294;2022-12-07T00:56:17;24.80;;;9.27;;
69989;SDS011;57331;52.054;5.294;2022-12-07T00:58:53;13.48;;;6.53;;
69989;SDS011;57331;52.054;5.294;2022-12-07T01:01:26;13.60;;;6.43;;
69989;SDS011;57331;52.054;5.294;2022-12-07T01:03:54;10.90;;;5.93;;
69989;SDS011;57331;52.054;5.294;2022-12-07T01:06:22;14.77;;;6.60;;
69989;SDS011;57331;52.054;5.294;2022-12-07T01:08:49;16.52;;;6.38;;
69989;SDS011;57331;52.054;5.294;2022-12-07T01:11:19;13.32;;;6.40;;
69989;SDS011;57331;52.054;5.294;2022-12-07T01:13:49;12.32;;;6.40;;
69989;SDS011;57331;52.054;5.294;2022-12-07T01:16:18;12.90;;;5.50;;
69989;SDS011;57331;52.054;5.294;2022-12-07T01:18:47;12.65;;;6.32;;
69989;SDS011;57331;52.054;5.294;2022-12-07T01:21:17;21.27;;;8.68;;
69989;SDS011;57331;52.054;5.294;2022-12-07T01:23:48;14.50;;;6.35;;
69989;SDS011;57331;52.054;5.294;2022-12-07T01:26:17;12.40;;;6.30;;
69989;SDS011;57331;52.054;5.294;2022-12-07T01:28:47;11.57;;;5.27;;
69989;SDS011;57331;52.054;5.294;2022-12-07T01:31:16;12.07;;;5.55;;
69989;SDS011;57331;52.054;5.294;2022-12-07T01:33:46;13.05;;;5.95;;
69989;SDS011;57331;52.054;5.294;2022-12-07T01:36:21;13.82;;;5.35;;
69989;SDS011;57331;52.054;5.294;2022-12-07T01:38:51;25.95;;;9.57;;
69989;SDS011;57331;52.054;5.294;2022-12-07T01:41:23;15.47;;;6.17;;
69989;SDS011;57331;52.054;5.294;2022-12-07T01:46:34;16.00;;;7.28;;
69989;SDS011;57331;52.054;5.294;2022-12-07T01:49:01;13.18;;;6.15;;
69989;SDS011;57331;52.054;5.294;2022-12-07T01:51:31;14.90;;;6.60;;
69989;SDS011;57331;52.054;5.294;2022-12-07T01:53:59;12.40;;;6.10;;
69989;SDS011;57331;52.054;5.294;2022-12-07T01:56:27;10.25;;;5.70;;
69989;SDS011;57331;52.054;5.294;2022-12-07T01:58:55;14.70;;;6.60;;
69989;SDS011;57331;52.054;5.294;2022-12-07T02:01:26;12.35;;;5.88;;
69989;SDS011;57331;52.054;5.294;2022-12-07T02:03:53;11.93;;;6.15;;
69989;SDS011;57331;52.054;5.294;2022-12-07T02:06:20;13.63;;;5.87;;
69989;SDS011;57331;52.054;5.294;2022-12-07T02:08:50;11.95;;;5.63;;
69989;SDS011;57331;52.054;5.294;2022-12-07T02:11:18;15.77;;;6.45;;
69989;SDS011;57331;52.054;5.294;2022-12-07T02:13:46;15.27;;;6.45;;
69989;SDS011;57331;52.054;5.294;2022-12-07T02:21:25;13.55;;;5.90;;
69989;SDS011;57331;52.054;5.294;2022-12-07T02:24:57;15.90;;;6.85;;
69989;SDS011;57331;52.054;5.294;2022-12-07T02:29:56;12.80;;;5.75;;
69989;SDS011;57331;52.054;5.294;2022-12-07T02:35:00;10.32;;;5.32;;
69989;SDS011;57331;52.054;5.294;2022-12-07T02:37:36;10.85;;;5.53;;
69989;SDS011;57331;52.054;5.294;2022-12-07T02:40:08;12.90;;;5.90;;
69989;SDS011;57331;52.054;5.294;2022-12-07T02:42:50;13.90;;;6.18;;
69989;SDS011;57331;52.054;5.294;2022-12-07T02:45:20;11.07;;;5.23;;
69989;SDS011;57331;52.054;5.294;2022-12-07T02:47:48;10.68;;;5.80;;
69989;SDS011;57331;52.054;5.294;2022-12-07T02:50:19;17.67;;;7.38;;
69989;SDS011;57331;52.054;5.294;2022-12-07T02:52:47;12.93;;;6.05;;
69989;SDS011;57331;52.054;5.294;2022-12-07T02:55:15;11.48;;;5.45;;
69989;SDS011;57331;52.054;5.294;2022-12-07T03:00:31;14.40;;;6.10;;
69989;SDS011;57331;52.054;5.294;2022-12-07T03:03:10;11.77;;;5.57;;
69989;SDS011;57331;52.054;5.294;2022-12-07T03:11:06;16.43;;;6.13;;
69989;SDS011;57331;52.054;5.294;2022-12-07T03:16:45;12.52;;;5.22;;
69989;SDS011;57331;52.054;5.294;2022-12-07T03:19:19;12.25;;;4.97;;
69989;SDS011;57331;52.054;5.294;2022-12-07T03:21:49;12.52;;;5.68;;
69989;SDS011;57331;52.054;5.294;2022-12-07T03:24:22;58.77;;;6.30;;
69989;SDS011;57331;52.054;5.294;2022-12-07T03:26:55;13.32;;;5.63;;
69989;SDS011;57331;52.054;5.294;2022-12-07T03:29:34;10.98;;;5.10;;
69989;SDS011;57331;52.054;5.294;2022-12-07T03:34:43;12.55;;;5.63;;
69989;SDS011;57331;52.054;5.294;2022-12-07T03:40:20;15.73;;;5.85;;
69989;SDS011;57331;52.054;5.294;2022-12-07T03:42:54;14.13;;;5.43;;
69989;SDS011;57331;52.054;5.294;2022-12-07T03:45:23;11.05;;;5.00;;
69989;SDS011;57331;52.054;5.294;2022-12-07T03:48:05;14.23;;;5.47;;
69989;SDS011;57331;52.054;5.294;2022-12-07T03:55:55;12.18;;;5.00;;
69989;SDS011;57331;52.054;5.294;2022-12-07T03:58:23;12.57;;;5.70;;
69989;SDS011;57331;52.054;5.294;2022-12-07T04:00:51;13.40;;;5.47;;
69989;SDS011;57331;52.054;5.294;2022-12-07T04:03:18;21.27;;;6.10;;
69989;SDS011;57331;52.054;5.294;2022-12-07T04:05:45;13.55;;;5.63;;
69989;SDS011;57331;52.054;5.294;2022-12-07T04:08:13;10.85;;;5.13;;
69989;SDS011;57331;52.054;5.294;2022-12-07T04:10:40;11.10;;;5.22;;
69989;SDS011;57331;52.054;5.294;2022-12-07T04:13:07;11.45;;;5.00;;
69989;SDS011;57331;52.054;5.294;2022-12-07T04:15:34;9.33;;;4.60;;
69989;SDS011;57331;52.054;5.294;2022-12-07T04:18:01;12.50;;;5.90;;
69989;SDS011;57331;52.054;5.294;2022-12-07T04:20:28;12.07;;;5.65;;
69989;SDS011;57331;52.054;5.294;2022-12-07T04:22:55;10.55;;;4.85;;
69989;SDS011;57331;52.054;5.294;2022-12-07T04:25:23;12.55;;;5.45;;
69989;SDS011;57331;52.054;5.294;2022-12-07T04:27:49;12.97;;;4.80;;
69989;SDS011;57331;52.054;5.294;2022-12-07T04:30:17;10.10;;;4.60;;
69989;SDS011;57331;52.054;5.294;2022-12-07T04:32:44;11.88;;;5.20;;
69989;SDS011;57331;52.054;5.294;2022-12-07T04:35:11;13.50;;;5.18;;
69989;SDS011;57331;52.054;5.294;2022-12-07T04:37:38;13.40;;;4.93;;
69989;SDS011;57331;52.054;5.294;2022-12-07T04:40:07;11.57;;;4.93;;
69989;SDS011;57331;52.054;5.294;2022-12-07T04:42:36;13.98;;;4.78;;
69989;SDS011;57331;52.054;5.294;2022-12-07T04:45:04;12.55;;;4.85;;
69989;SDS011;57331;52.054;5.294;2022-12-07T04:47:31;10.80;;;4.75;;
69989;SDS011;57331;52.054;5.294;2022-12-07T04:49:58;12.32;;;4.68;;
69989;SDS011;57331;52.054;5.294;2022-12-07T04:52:26;11.30;;;4.70;;
69989;SDS011;57331;52.054;5.294;2022-12-07T04:54:54;9.90;;;4.78;;
69989;SDS011;57331;52.054;5.294;2022-12-07T04:57:21;13.68;;;4.28;;
69989;SDS011;57331;52.054;5.294;2022-12-07T04:59:48;9.82;;;4.97;;
69989;SDS011;57331;52.054;5.294;2022-12-07T05:02:15;13.13;;;4.95;;
69989;SDS011;57331;52.054;5.294;2022-12-07T05:04:42;10.27;;;4.60;;
69989;SDS011;57331;52.054;5.294;2022-12-07T05:07:09;14.32;;;4.95;;
69989;SDS011;57331;52.054;5.294;2022-12-07T05:09:36;11.13;;;4.82;;
69989;SDS011;57331;52.054;5.294;2022-12-07T05:12:03;16.10;;;5.57;;
69989;SDS011;57331;52.054;5.294;2022-12-07T05:14:30;9.80;;;4.82;;
69989;SDS011;57331;52.054;5.294;2022-12-07T05:16:58;15.33;;;4.60;;
69989;SDS011;57331;52.054;5.294;2022-12-07T05:19:25;18.23;;;4.43;;
69989;SDS011;57331;52.054;5.294;2022-12-07T05:21:52;11.50;;;4.10;;
69989;SDS011;57331;52.054;5.294;2022-12-07T05:24:19;13.13;;;4.57;;
69989;SDS011;57331;52.054;5.294;2022-12-07T05:26:47;9.75;;;4.18;;
69989;SDS011;57331;52.054;5.294;2022-12-07T05:29:15;14.77;;;4.37;;
69989;SDS011;57331;52.054;5.294;2022-12-07T05:31:43;11.48;;;5.05;;
69989;SDS011;57331;52.054;5.294;2022-12-07T05:34:11;15.35;;;5.50;;
69989;SDS011;57331;52.054;5.294;2022-12-07T05:36:38;12.30;;;4.03;;
69989;SDS011;57331;52.054;5.294;2022-12-07T05:39:05;12.65;;;4.03;;
69989;SDS011;57331;52.054;5.294;2022-12-07T05:41:33;14.27;;;4.90;;
69989;SDS011;57331;52.054;5.294;2022-12-07T05:44:19;8.93;;;4.30;;
69989;SDS011;57331;52.054;5.294;2022-12-07T05:46:46;10.05;;;4.20;;
69989;SDS011;57331;52.054;5.294;2022-12-07T05:49:14;8.52;;;3.72;;
69989;SDS011;57331;52.054;5.294;2022-12-07T05:51:41;13.00;;;4.65;;
69989;SDS011;57331;52.054;5.294;2022-12-07T05:54:08;12.57;;;4.30;;
69989;SDS011;57331;52.054;5.294;2022-12-07T05:56:35;14.65;;;4.05;;
69989;SDS011;57331;52.054;5.294;2022-12-07T05:59:03;12.48;;;4.05;;
69989;SDS011;57331;52.054;5.294;2022-12-07T06:01:49;11.93;;;3.95;;
69989;SDS011;57331;52.054;5.294;2022-12-07T06:04:16;16.35;;;3.92;;
69989;SDS011;57331;52.054;5.294;2022-12-07T06:06:44;12.97;;;3.67;;
69989;SDS011;57331;52.054;5.294;2022-12-07T06:09:11;11.90;;;4.65;;
69989;SDS011;57331;52.054;5.294;2022-12-07T06:11:39;11.95;;;4.30;;
69989;SDS011;57331;52.054;5.294;2022-12-07T06:14:25;6.82;;;3.33;;
69989;SDS011;57331;52.054;5.294;2022-12-07T06:16:52;14.25;;;4.63;;
69989;SDS011;57331;52.054;5.294;2022-12-07T06:19:20;9.03;;;4.17;;
69989;SDS011;57331;52.054;5.294;2022-12-07T06:21:47;12.07;;;4.90;;
69989;SDS011;57331;52.054;5.294;2022-12-07T06:24:15;17.27;;;6.13;;
69989;SDS011;57331;52.054;5.294;2022-12-07T06:26:42;11.30;;;4.80;;
69989;SDS011;57331;52.054;5.294;2022-12-07T06:29:10;11.77;;;5.80;;
69989;SDS011;57331;52.054;5.294;2022-12-07T06:31:37;15.00;;;5.27;;
69989;SDS011;57331;52.054;5.294;2022-12-07T06:34:05;12.60;;;4.65;;
69989;SDS011;57331;52.054;5.294;2022-12-07T06:36:35;13.15;;;4.80;;
69989;SDS011;57331;52.054;5.294;2022-12-07T06:39:03;14.02;;;4.85;;
69989;SDS011;57331;52.054;5.294;2022-12-07T06:41:31;13.25;;;4.95;;
69989;SDS011;57331;52.054;5.294;2022-12-07T06:43:58;13.07;;;3.97;;
69989;SDS011;57331;52.054;5.294;2022-12-07T06:46:25;9.63;;;4.30;;
69989;SDS011;57331;52.054;5.294;2022-12-07T06:48:52;10.70;;;4.28;;
69989;SDS011;57331;52.054;5.294;2022-12-07T06:51:20;8.57;;;3.75;;
69989;SDS011;57331;52.054;5.294;2022-12-07T06:53:47;7.90;;;3.95;;
69989;SDS011;57331;52.054;5.294;2022-12-07T06:56:15;10.03;;;3.97;;
69989;SDS011;57331;52.054;5.294;2022-12-07T06:58:42;13.63;;;5.50;;
69989;SDS011;57331;52.054;5.294;2022-12-07T07:01:10;10.57;;;5.35;;
69989;SDS011;57331;52.054;5.294;2022-12-07T07:03:38;12.13;;;3.83;;
69989;SDS011;57331;52.054;5.294;2022-12-07T07:06:06;9.45;;;4.03;;
69989;SDS011;57331;52.054;5.294;2022-12-07T07:08:37;10.83;;;4.03;;
69989;SDS011;57331;52.054;5.294;2022-12-07T07:11:04;10.32;;;3.92;;
69989;SDS011;57331;52.054;5.294;2022-12-07T07:13:32;81.45;;;7.60;;
69989;SDS011;57331;52.054;5.294;2022-12-07T07:15:59;223.00;;;14.00;;
69989;SDS011;57331;52.054;5.294;2022-12-07T07:18:27;18.48;;;5.00;;
69989;SDS011;57331;52.054;5.294;2022-12-07T07:20:54;18.93;;;5.10;;
69989;SDS011;57331;52.054;5.294;2022-12-07T07:23:21;14.32;;;6.20;;
69989;SDS011;57331;52.054;5.294;2022-12-07T07:25:48;14.40;;;6.50;;
69989;SDS011;57331;52.054;5.294;2022-12-07T07:28:16;17.48;;;6.55;;
69989;SDS011;57331;52.054;5.294;2022-12-07T07:30:43;13.45;;;6.13;;
69989;SDS011;57331;52.054;5.294;2022-12-07T07:33:10;18.00;;;5.73;;
69989;SDS011;57331;52.054;5.294;2022-12-07T07:35:38;14.40;;;4.90;;
69989;SDS011;57331;52.054;5.294;2022-12-07T07:38:05;15.10;;;4.60;;
69989;SDS011;57331;52.054;5.294;2022-12-07T07:40:33;13.68;;;4.63;;
69989;SDS011;57331;52.054;5.294;2022-12-07T07:43:00;11.52;;;4.78;;
69989;SDS011;57331;52.054;5.294;2022-12-07T07:45:28;11.27;;;4.63;;
69989;SDS011;57331;52.054;5.294;2022-12-07T07:47:55;15.32;;;4.22;;
69989;SDS011;57331;52.054;5.294;2022-12-07T07:50:22;10.68;;;4.10;;
69989;SDS011;57331;52.054;5.294;2022-12-07T07:52:50;15.13;;;4.53;;
69989;SDS011;57331;52.054;5.294;2022-12-07T07:55:17;11.18;;;4.70;;
69989;SDS011;57331;52.054;5.294;2022-12-07T07:57:45;10.93;;;4.27;;
69989;SDS011;57331;52.054;5.294;2022-12-07T08:00:19;11.02;;;3.92;;
69989;SDS011;57331;52.054;5.294;2022-12-07T08:02:47;12.18;;;4.03;;
69989;SDS011;57331;52.054;5.294;2022-12-07T08:05:14;10.93;;;3.60;;
69989;SDS011;57331;52.054;5.294;2022-12-07T08:07:41;9.02;;;4.05;;
69989;SDS011;57331;52.054;5.294;2022-12-07T08:10:09;9.53;;;3.60;;
69989;SDS011;57331;52.054;5.294;2022-12-07T08:12:38;14.88;;;3.50;;
69989;SDS011;57331;52.054;5.294;2022-12-07T08:15:26;7.93;;;3.70;;
69989;SDS011;57331;52.054;5.294;2022-12-07T08:17:54;11.13;;;3.38;;
69989;SDS011;57331;52.054;5.294;2022-12-07T08:20:21;11.23;;;4.03;;
69989;SDS011;57331;52.054;5.294;2022-12-07T08:22:49;7.70;;;3.60;;
69989;SDS011;57331;52.054;5.294;2022-12-07T08:25:16;10.93;;;3.90;;
69989;SDS011;57331;52.054;5.294;2022-12-07T08:27:44;12.85;;;4.07;;
69989;SDS011;57331;52.054;5.294;2022-12-07T08:30:11;10.57;;;3.60;;
69989;SDS011;57331;52.054;5.294;2022-12-07T08:32:38;11.63;;;4.45;;
69989;SDS011;57331;52.054;5.294;2022-12-07T08:35:06;15.97;;;5.20;;
69989;SDS011;57331;52.054;5.294;2022-12-07T08:37:34;12.43;;;5.43;;
69989;SDS011;57331;52.054;5.294;2022-12-07T08:40:01;13.73;;;5.50;;
69989;SDS011;57331;52.054;5.294;2022-12-07T08:42:28;13.73;;;5.53;;
69989;SDS011;57331;52.054;5.294;2022-12-07T08:45:05;16.40;;;6.25;;
69989;SDS011;57331;52.054;5.294;2022-12-07T08:47:44;20.87;;;6.47;;
69989;SDS011;57331;52.054;5.294;2022-12-07T08:50:18;15.60;;;5.00;;
69989;SDS011;57331;52.054;5.294;2022-12-07T08:52:48;14.55;;;5.20;;
69989;SDS011;57331;52.054;5.294;2022-12-07T08:55:17;12.43;;;5.05;;
69989;SDS011;57331;52.054;5.294;2022-12-07T08:57:45;12.98;;;5.20;;
69989;SDS011;57331;52.054;5.294;2022-12-07T09:00:12;24.97;;;6.27;;
69989;SDS011;57331;52.054;5.294;2022-12-07T09:02:39;15.23;;;4.45;;
69989;SDS011;57331;52.054;5.294;2022-12-07T09:05:07;14.63;;;5.22;;
69989;SDS011;57331;52.054;5.294;2022-12-07T09:07:42;22.83;;;6.53;;
69989;SDS011;57331;52.054;5.294;2022-12-07T09:10:10;16.15;;;6.43;;
69989;SDS011;57331;52.054;5.294;2022-12-07T09:12:37;25.27;;;8.07;;
69989;SDS011;57331;52.054;5.294;2022-12-07T09:15:05;18.60;;;6.00;;
69989;SDS011;57331;52.054;5.294;2022-12-07T09:17:32;20.23;;;5.75;;
69989;SDS011;57331;52.054;5.294;2022-12-07T09:20:00;21.20;;;5.72;;
69989;SDS011;57331;52.054;5.294;2022-12-07T09:22:29;18.55;;;5.88;;
69989;SDS011;57331;52.054;5.294;2022-12-07T09:24:57;13.50;;;5.80;;
69989;SDS011;57331;52.054;5.294;2022-12-07T09:27:24;14.23;;;4.13;;
69989;SDS011;57331;52.054;5.294;2022-12-07T09:29:51;10.32;;;3.70;;
69989;SDS011;57331;52.054;5.294;2022-12-07T09:32:19;16.00;;;4.82;;
69989;SDS011;57331;52.054;5.294;2022-12-07T09:34:46;11.98;;;4.60;;
69989;SDS011;57331;52.054;5.294;2022-12-07T09:37:14;15.40;;;5.23;;
69989;SDS011;57331;52.054;5.294;2022-12-07T09:39:41;13.20;;;3.78;;
69989;SDS011;57331;52.054;5.294;2022-12-07T09:42:23;17.77;;;4.50;;
69989;SDS011;57331;52.054;5.294;2022-12-07T09:44:55;14.02;;;4.38;;
69989;SDS011;57331;52.054;5.294;2022-12-07T09:47:22;12.30;;;4.75;;
69989;SDS011;57331;52.054;5.294;2022-12-07T09:49:49;8.50;;;2.30;;
69989;SDS011;57331;52.054;5.294;2022-12-07T09:52:19;11.38;;;3.10;;
69989;SDS011;57331;52.054;5.294;2022-12-07T09:54:52;9.52;;;2.63;;
69989;SDS011;57331;52.054;5.294;2022-12-07T09:57:28;11.38;;;2.30;;
69989;SDS011;57331;52.054;5.294;2022-12-07T10:00:00;12.32;;;2.08;;
69989;SDS011;57331;52.054;5.294;2022-12-07T10:05:03;10.45;;;2.45;;
69989;SDS011;57331;52.054;5.294;2022-12-07T10:07:32;6.88;;;2.38;;
69989;SDS011;57331;52.054;5.294;2022-12-07T10:10:01;9.43;;;2.30;;
69989;SDS011;57331;52.054;5.294;2022-12-07T10:12:29;8.90;;;2.00;;
69989;SDS011;57331;52.054;5.294;2022-12-07T10:15:00;12.13;;;2.10;;
69989;SDS011;57331;52.054;5.294;2022-12-07T10:17:37;10.48;;;2.45;;
69989;SDS011;57331;52.054;5.294;2022-12-07T10:20:21;9.02;;;2.17;;
69989;SDS011;57331;52.054;5.294;2022-12-07T10:22:55;5.68;;;2.13;;
69989;SDS011;57331;52.054;5.294;2022-12-07T10:25:28;6.20;;;2.35;;
69989;SDS011;57331;52.054;5.294;2022-12-07T10:35:59;13.30;;;2.08;;
69989;SDS011;57331;52.054;5.294;2022-12-07T10:38:35;7.05;;;2.00;;
69989;SDS011;57331;52.054;5.294;2022-12-07T10:41:18;8.43;;;2.07;;
69989;SDS011;57331;52.054;5.294;2022-12-07T10:43:50;11.10;;;2.40;;
69989;SDS011;57331;52.054;5.294;2022-12-07T10:49:03;6.07;;;1.98;;
69989;SDS011;57331;52.054;5.294;2022-12-07T10:51:43;9.45;;;2.92;;
69989;SDS011;57331;52.054;5.294;2022-12-07T11:02:53;8.23;;;1.52;;
69989;SDS011;57331;52.054;5.294;2022-12-07T11:08:00;12.37;;;3.20;;
69989;SDS011;57331;52.054;5.294;2022-12-07T11:10:44;7.10;;;2.38;;
69989;SDS011;57331;52.054;5.294;2022-12-07T11:13:43;7.65;;;2.20;;
69989;SDS011;57331;52.054;5.294;2022-12-07T11:19:06;7.72;;;2.25;;
69989;SDS011;57331;52.054;5.294;2022-12-07T11:22:06;10.53;;;2.07;;
69989;SDS011;57331;52.054;5.294;2022-12-07T11:27:41;10.88;;;2.05;;
69989;SDS011;57331;52.054;5.294;2022-12-07T11:30:19;6.03;;;1.55;;
69989;SDS011;57331;52.054;5.294;2022-12-07T11:32:56;4.97;;;1.30;;
69989;SDS011;57331;52.054;5.294;2022-12-07T11:35:30;5.70;;;1.70;;
69989;SDS011;57331;52.054;5.294;2022-12-07T11:38:12;5.75;;;1.58;;
69989;SDS011;57331;52.054;5.294;2022-12-07T11:40:48;6.32;;;1.70;;
69989;SDS011;57331;52.054;5.294;2022-12-07T11:43:20;12.48;;;1.90;;
69989;SDS011;57331;52.054;5.294;2022-12-07T11:46:00;6.47;;;1.98;;
69989;SDS011;57331;52.054;5.294;2022-12-07T11:48:35;10.63;;;2.67;;
69989;SDS011;57331;52.054;5.294;2022-12-07T11:51:07;9.63;;;1.77;;
69989;SDS011;57331;52.054;5.294;2022-12-07T11:53:39;7.38;;;2.70;;
69989;SDS011;57331;52.054;5.294;2022-12-07T12:03:49;6.32;;;2.20;;
69989;SDS011;57331;52.054;5.294;2022-12-07T12:06:19;6.85;;;2.08;;
69989;SDS011;57331;52.054;5.294;2022-12-07T12:15:26;9.53;;;2.00;;
69989;SDS011;57331;52.054;5.294;2022-12-07T12:20:50;5.40;;;1.70;;
69989;SDS011;57331;52.054;5.294;2022-12-07T12:26:07;5.10;;;1.73;;
69989;SDS011;57331;52.054;5.294;2022-12-07T12:31:32;7.28;;;1.85;;
69989;SDS011;57331;52.054;5.294;2022-12-07T12:34:57;11.15;;;2.08;;
69989;SDS011;57331;52.054;5.294;2022-12-07T12:37:13;7.75;;;1.77;;
69989;SDS011;57331;52.054;5.294;2022-12-07T12:42:48;7.33;;;2.10;;
69989;SDS011;57331;52.054;5.294;2022-12-07T12:50:29;7.05;;;1.90;;
69989;SDS011;57331;52.054;5.294;2022-12-07T12:56:10;7.27;;;1.80;;
69989;SDS011;57331;52.054;5.294;2022-12-07T12:59:17;7.05;;;1.60;;
69989;SDS011;57331;52.054;5.294;2022-12-07T13:01:46;9.48;;;1.98;;
69989;SDS011;57331;52.054;5.294;2022-12-07T13:04:18;7.32;;;1.80;;
69989;SDS011;57331;52.054;5.294;2022-12-07T13:06:50;7.20;;;1.50;;
69989;SDS011;57331;52.054;5.294;2022-12-07T13:09:19;11.13;;;2.13;;
69989;SDS011;57331;52.054;5.294;2022-12-07T13:11:49;7.90;;;2.25;;
69989;SDS011;57331;52.054;5.294;2022-12-07T13:17:09;7.82;;;1.80;;
69989;SDS011;57331;52.054;5.294;2022-12-07T13:25:07;8.55;;;2.00;;
69989;SDS011;57331;52.054;5.294;2022-12-07T13:27:37;11.13;;;2.00;;
69989;SDS011;57331;52.054;5.294;2022-12-07T13:30:24;8.45;;;1.85;;
69989;SDS011;57331;52.054;5.294;2022-12-07T13:32:56;5.88;;;1.58;;
69989;SDS011;57331;52.054;5.294;2022-12-07T13:35:32;5.73;;;2.10;;
69989;SDS011;57331;52.054;5.294;2022-12-07T13:38:02;4.70;;;1.92;;
69989;SDS011;57331;52.054;5.294;2022-12-07T13:40:32;6.20;;;1.85;;
69989;SDS011;57331;52.054;5.294;2022-12-07T13:43:00;6.53;;;1.70;;
69989;SDS011;57331;52.054;5.294;2022-12-07T13:45:30;8.07;;;1.90;;
69989;SDS011;57331;52.054;5.294;2022-12-07T13:48:29;7.00;;;1.87;;
69989;SDS011;57331;52.054;5.294;2022-12-07T13:51:02;7.97;;;1.60;;
69989;SDS011;57331;52.054;5.294;2022-12-07T13:53:30;8.32;;;1.50;;
69989;SDS011;57331;52.054;5.294;2022-12-07T13:55:58;14.00;;;2.05;;
69989;SDS011;57331;52.054;5.294;2022-12-07T13:58:27;7.68;;;1.67;;
69989;SDS011;57331;52.054;5.294;2022-12-07T14:00:57;6.47;;;1.70;;
69989;SDS011;57331;52.054;5.294;2022-12-07T14:03:26;4.88;;;1.80;;
69989;SDS011;57331;52.054;5.294;2022-12-07T14:06:06;5.85;;;1.38;;
69989;SDS011;57331;52.054;5.294;2022-12-07T14:08:45;7.55;;;1.80;;
69989;SDS011;57331;52.054;5.294;2022-12-07T14:11:17;4.93;;;1.75;;
69989;SDS011;57331;52.054;5.294;2022-12-07T14:14:01;6.00;;;1.53;;
69989;SDS011;57331;52.054;5.294;2022-12-07T14:16:31;3.97;;;1.40;;
69989;SDS011;57331;52.054;5.294;2022-12-07T14:19:02;6.18;;;1.42;;
69989;SDS011;57331;52.054;5.294;2022-12-07T14:21:32;4.05;;;1.20;;
69989;SDS011;57331;52.054;5.294;2022-12-07T14:26:43;5.10;;;1.17;;
69989;SDS011;57331;52.054;5.294;2022-12-07T14:29:21;3.70;;;1.63;;
69989;SDS011;57331;52.054;5.294;2022-12-07T14:31:51;2.67;;;1.20;;
69989;SDS011;57331;52.054;5.294;2022-12-07T14:34:20;5.55;;;1.35;;
69989;SDS011;57331;52.054;5.294;2022-12-07T14:36:47;5.28;;;1.42;;
69989;SDS011;57331;52.054;5.294;2022-12-07T14:39:15;3.27;;;1.30;;
69989;SDS011;57331;52.054;5.294;2022-12-07T14:41:42;3.15;;;1.10;;
69989;SDS011;57331;52.054;5.294;2022-12-07T14:44:19;5.55;;;1.17;;
69989;SDS011;57331;52.054;5.294;2022-12-07T14:46:52;7.80;;;1.33;;
69989;SDS011;57331;52.054;5.294;2022-12-07T14:49:39;5.53;;;1.25;;
69989;SDS011;57331;52.054;5.294;2022-12-07T14:52:09;4.07;;;1.10;;
69989;SDS011;57331;52.054;5.294;2022-12-07T14:55:00;4.18;;;1.48;;
69989;SDS011;57331;52.054;5.294;2022-12-07T14:57:28;5.63;;;1.25;;
69989;SDS011;57331;52.054;5.294;2022-12-07T14:59:55;5.82;;;1.40;;
69989;SDS011;57331;52.054;5.294;2022-12-07T15:02:22;4.15;;;1.40;;
69989;SDS011;57331;52.054;5.294;2022-12-07T15:04:49;6.90;;;1.87;;
69989;SDS011;57331;52.054;5.294;2022-12-07T15:07:19;3.45;;;1.20;;
69989;SDS011;57331;52.054;5.294;2022-12-07T15:09:47;6.32;;;1.52;;
69989;SDS011;57331;52.054;5.294;2022-12-07T15:12:14;3.08;;;1.10;;
69989;SDS011;57331;52.054;5.294;2022-12-07T15:14:42;4.20;;;1.35;;
69989;SDS011;57331;52.054;5.294;2022-12-07T15:17:10;4.33;;;1.10;;
69989;SDS011;57331;52.054;5.294;2022-12-07T15:19:56;3.90;;;1.30;;
69989;SDS011;57331;52.054;5.294;2022-12-07T15:22:23;6.45;;;1.30;;
69989;SDS011;57331;52.054;5.294;2022-12-07T15:24:50;6.50;;;1.65;;
69989;SDS011;57331;52.054;5.294;2022-12-07T15:27:17;5.68;;;1.50;;
69989;SDS011;57331;52.054;5.294;2022-12-07T15:29:44;7.30;;;1.20;;
69989;SDS011;57331;52.054;5.294;2022-12-07T15:32:12;3.08;;;1.00;;
69989;SDS011;57331;52.054;5.294;2022-12-07T15:34:39;3.20;;;1.00;;
69989;SDS011;57331;52.054;5.294;2022-12-07T15:37:07;3.83;;;1.30;;
69989;SDS011;57331;52.054;5.294;2022-12-07T15:39:35;8.48;;;2.05;;
69989;SDS011;57331;52.054;5.294;2022-12-07T15:42:03;5.97;;;1.47;;
69989;SDS011;57331;52.054;5.294;2022-12-07T15:44:30;10.70;;;1.60;;
69989;SDS011;57331;52.054;5.294;2022-12-07T15:47:16;6.22;;;1.30;;
69989;SDS011;57331;52.054;5.294;2022-12-07T15:49:44;8.00;;;1.75;;
69989;SDS011;57331;52.054;5.294;2022-12-07T15:52:11;8.52;;;1.67;;
69989;SDS011;57331;52.054;5.294;2022-12-07T15:54:39;7.37;;;1.47;;
69989;SDS011;57331;52.054;5.294;2022-12-07T15:57:06;5.10;;;1.40;;
69989;SDS011;57331;52.054;5.294;2022-12-07T15:59:33;5.18;;;1.70;;
69989;SDS011;57331;52.054;5.294;2022-12-07T16:02:00;4.20;;;1.42;;
69989;SDS011;57331;52.054;5.294;2022-12-07T16:04:28;6.20;;;1.73;;
69989;SDS011;57331;52.054;5.294;2022-12-07T16:06:57;5.83;;;1.70;;
69989;SDS011;57331;52.054;5.294;2022-12-07T16:09:24;5.90;;;1.65;;
69989;SDS011;57331;52.054;5.294;2022-12-07T16:11:51;6.85;;;2.58;;
69989;SDS011;57331;52.054;5.294;2022-12-07T16:14:19;5.20;;;2.08;;
69989;SDS011;57331;52.054;5.294;2022-12-07T16:16:47;4.45;;;1.48;;
69989;SDS011;57331;52.054;5.294;2022-12-07T16:19:14;6.73;;;1.93;;
69989;SDS011;57331;52.054;5.294;2022-12-07T16:21:41;9.10;;;2.45;;
69989;SDS011;57331;52.054;5.294;2022-12-07T16:24:09;6.40;;;1.92;;
69989;SDS011;57331;52.054;5.294;2022-12-07T16:26:36;8.88;;;2.40;;
69989;SDS011;57331;52.054;5.294;2022-12-07T16:29:03;9.18;;;1.52;;
69989;SDS011;57331;52.054;5.294;2022-12-07T16:31:31;6.77;;;2.10;;
69989;SDS011;57331;52.054;5.294;2022-12-07T16:33:58;6.95;;;1.67;;
69989;SDS011;57331;52.054;5.294;2022-12-07T16:36:25;7.50;;;2.25;;
69989;SDS011;57331;52.054;5.294;2022-12-07T16:39:13;6.38;;;2.00;;
69989;SDS011;57331;52.054;5.294;2022-12-07T16:41:41;7.75;;;2.30;;
69989;SDS011;57331;52.054;5.294;2022-12-07T16:44:09;6.83;;;2.23;;
69989;SDS011;57331;52.054;5.294;2022-12-07T16:46:39;7.68;;;2.03;;
69989;SDS011;57331;52.054;5.294;2022-12-07T16:49:06;6.57;;;1.90;;
69989;SDS011;57331;52.054;5.294;2022-12-07T16:51:33;7.15;;;2.00;;